GEC238 SAEZ-SCEL
Flight info
| Callsign | GEC238 |
|---|---|
| Flight time | N/A |
| Altitude | 30000 |
| Route | URINO1E URINO UL405 TOSOR UT687 UMKAL UMKAL7C |
| Aircraft | B77L/H-SDE1E2E3FGHIJ2J3J4J5M1RWXY/LB1D1 |
Departure
| Time | N/A |
|---|---|
| Airport | Ezeiza International Airport - Ministro Pistarini (SAEZ) |
Arrival
| Time | 2026-05-07 04:53 |
|---|---|
| Airport | Comodoro Arturo Merino Benítez International Airport (SCEL) |
| Time | Latitude | Longitude | Altitude | Speed | Heading |
|---|---|---|---|---|---|
| 2026-05-07 04:33 | -33.65700 | -66.00696 | 29969 ft | 428 kts | 285° |
| 2026-05-07 04:33 | -33.55718 | -66.56579 | 29805 ft | 425 kts | 285° |
| 2026-05-07 04:34 | -33.45485 | -67.12248 | 29905 ft | 434 kts | 285° |
| 2026-05-07 04:34 | -33.34696 | -67.69403 | 29867 ft | 444 kts | 285° |
| 2026-05-07 04:35 | -33.23543 | -68.27053 | 29812 ft | 445 kts | 285° |
| 2026-05-07 04:35 | -33.12138 | -68.84570 | 29792 ft | 447 kts | 284° |
| 2026-05-07 04:36 | -33.06272 | -69.13520 | 29898 ft | 451 kts | 283° |
| 2026-05-07 04:36 | -33.00335 | -69.42417 | 30070 ft | 457 kts | 282° |
| 2026-05-07 04:36 | -32.94291 | -69.71479 | 30124 ft | 433 kts | 282° |
| 2026-05-07 04:36 | -32.90609 | -69.89063 | 29944 ft | 411 kts | 282° |
| 2026-05-07 04:37 | -32.89915 | -69.92352 | 29759 ft | 409 kts | 282° |
| 2026-05-07 04:37 | -32.89232 | -69.95586 | 29118 ft | 407 kts | 282° |
| 2026-05-07 04:37 | -32.88544 | -69.98838 | 28197 ft | 407 kts | 282° |
| 2026-05-07 04:37 | -32.87969 | -70.02135 | 27288 ft | 407 kts | 278° |
| 2026-05-07 04:38 | -32.87631 | -70.05482 | 26408 ft | 407 kts | 275° |
| 2026-05-07 04:38 | -32.87382 | -70.08832 | 25594 ft | 407 kts | 275° |
| 2026-05-07 04:38 | -32.87136 | -70.12185 | 24813 ft | 407 kts | 275° |
| 2026-05-07 04:38 | -32.86871 | -70.15532 | 24098 ft | 406 kts | 275° |
| 2026-05-07 04:39 | -32.86586 | -70.18873 | 23235 ft | 406 kts | 276° |
| 2026-05-07 04:39 | -32.86386 | -70.21089 | 22562 ft | 406 kts | 276° |
| 2026-05-07 04:39 | -32.85977 | -70.25522 | 21201 ft | 408 kts | 276° |
| 2026-05-07 04:39 | -32.85768 | -70.27776 | 20783 ft | 405 kts | 276° |
| 2026-05-07 04:40 | -32.85364 | -70.32173 | 20527 ft | 407 kts | 276° |
| 2026-05-07 04:40 | -32.85064 | -70.35505 | 19777 ft | 397 kts | 276° |
| 2026-05-07 04:40 | -32.84765 | -70.38699 | 18597 ft | 384 kts | 276° |
| 2026-05-07 04:40 | -32.84462 | -70.41894 | 17675 ft | 389 kts | 276° |
| 2026-05-07 04:41 | -32.84264 | -70.43994 | 17302 ft | 381 kts | 276° |
| 2026-05-07 04:41 | -32.83977 | -70.47067 | 16410 ft | 368 kts | 276° |
| 2026-05-07 04:41 | -32.83695 | -70.50084 | 15184 ft | 367 kts | 276° |
| 2026-05-07 04:41 | -32.83410 | -70.53099 | 13945 ft | 368 kts | 276° |
| 2026-05-07 04:42 | -32.83124 | -70.56112 | 12730 ft | 366 kts | 276° |
| 2026-05-07 04:42 | -32.82745 | -70.60102 | 11751 ft | 368 kts | 276° |
| 2026-05-07 04:42 | -32.82460 | -70.63087 | 11471 ft | 357 kts | 276° |
| 2026-05-07 04:42 | -32.82276 | -70.65012 | 11344 ft | 350 kts | 276° |
| 2026-05-07 04:43 | -32.82203 | -70.67805 | 11214 ft | 330 kts | 261° |
| 2026-05-07 04:43 | -32.82900 | -70.70333 | 11158 ft | 317 kts | 244° |
| 2026-05-07 04:43 | -32.84072 | -70.72492 | 11016 ft | 308 kts | 230° |
| 2026-05-07 04:43 | -32.85598 | -70.74220 | 10859 ft | 300 kts | 223° |
| 2026-05-07 04:44 | -32.87124 | -70.75844 | 10738 ft | 288 kts | 224° |
| 2026-05-07 04:44 | -32.89039 | -70.77938 | 10435 ft | 281 kts | 224° |
| 2026-05-07 04:44 | -32.90010 | -70.79007 | 10142 ft | 282 kts | 224° |
| 2026-05-07 04:44 | -32.91516 | -70.80451 | 9613 ft | 283 kts | 209° |
| 2026-05-07 04:45 | -32.93429 | -70.81053 | 9086 ft | 291 kts | 183° |
| 2026-05-07 04:45 | -32.95453 | -70.80961 | 8618 ft | 292 kts | 178° |
| 2026-05-07 04:45 | -32.97482 | -70.80833 | 8229 ft | 292 kts | 179° |
| 2026-05-07 04:45 | -32.99480 | -70.80719 | 8099 ft | 285 kts | 179° |
| 2026-05-07 04:46 | -33.01478 | -70.80604 | 7700 ft | 290 kts | 178° |
| 2026-05-07 04:46 | -33.03497 | -70.80495 | 7386 ft | 291 kts | 178° |
| 2026-05-07 04:46 | -33.05524 | -70.80387 | 7054 ft | 290 kts | 178° |
| 2026-05-07 04:46 | -33.07531 | -70.80278 | 6719 ft | 288 kts | 178° |
| 2026-05-07 04:47 | -33.09524 | -70.80163 | 6442 ft | 283 kts | 178° |
| 2026-05-07 04:47 | -33.11462 | -70.80055 | 6311 ft | 276 kts | 178° |
| 2026-05-07 04:47 | -33.13365 | -70.79953 | 6081 ft | 272 kts | 178° |
| 2026-05-07 04:47 | -33.15222 | -70.79856 | 5726 ft | 267 kts | 178° |
| 2026-05-07 04:48 | -33.17044 | -70.79760 | 5386 ft | 258 kts | 178° |
| 2026-05-07 04:48 | -33.18817 | -70.79665 | 5093 ft | 253 kts | 177° |
| 2026-05-07 04:48 | -33.20561 | -70.79573 | 4853 ft | 245 kts | 177° |
| 2026-05-07 04:48 | -33.22220 | -70.79486 | 4658 ft | 234 kts | 178° |
| 2026-05-07 04:49 | -33.23801 | -70.79402 | 4317 ft | 219 kts | 178° |
| 2026-05-07 04:49 | -33.25263 | -70.79324 | 4021 ft | 202 kts | 178° |
| 2026-05-07 04:49 | -33.26613 | -70.79252 | 3764 ft | 188 kts | 178° |
| 2026-05-07 04:49 | -33.27893 | -70.79185 | 3521 ft | 179 kts | 178° |
| 2026-05-07 04:50 | -33.29124 | -70.79118 | 3301 ft | 176 kts | 178° |
| 2026-05-07 04:50 | -33.30333 | -70.79056 | 3077 ft | 176 kts | 178° |
| 2026-05-07 04:50 | -33.31524 | -70.78993 | 2810 ft | 164 kts | 178° |
| 2026-05-07 04:50 | -33.32619 | -70.78934 | 2587 ft | 151 kts | 178° |
| 2026-05-07 04:51 | -33.33654 | -70.78879 | 2370 ft | 149 kts | 177° |
| 2026-05-07 04:51 | -33.34708 | -70.78820 | 2169 ft | 152 kts | 176° |
| 2026-05-07 04:51 | -33.35762 | -70.78750 | 2013 ft | 151 kts | 176° |
| 2026-05-07 04:51 | -33.36823 | -70.78712 | 1804 ft | 153 kts | 176° |
| 2026-05-07 04:52 | -33.37882 | -70.78658 | 1592 ft | 153 kts | 175° |
| 2026-05-07 04:52 | -33.38875 | -70.78594 | 1570 ft | 128 kts | 180° |
| 2026-05-07 04:52 | -33.39602 | -70.78559 | 1568 ft | 88 kts | 177° |
| 2026-05-07 04:52 | -33.40114 | -70.78522 | 1569 ft | 70 kts | 177° |
| 2026-05-07 04:53 | -33.40460 | -70.78548 | 1569 ft | 16 kts | 233° |
| 2026-05-07 04:53 | -33.40453 | -70.78667 | 1568 ft | 16 kts | 311° |
| 2026-05-07 04:53 | -33.40395 | -70.78733 | 1568 ft | 9 kts | 309° |
| 2026-05-07 04:53 | -33.40392 | -70.78807 | 1568 ft | 9 kts | 248° |
| 2026-05-07 04:54 | -33.40443 | -70.78855 | 1568 ft | 9 kts | 206° |
| 2026-05-07 04:54 | -33.40497 | -70.78892 | 1568 ft | 4 kts | 216° |
| 2026-05-07 04:54 | -33.40504 | -70.78899 | 1568 ft | 1 kts | 220° |
| 2026-05-07 04:54 | -33.40526 | -70.78923 | 1568 ft | 7 kts | 224° |
| 2026-05-07 04:55 | -33.40528 | -70.78926 | 1569 ft | 0 kts | 224° |
| 2026-05-07 04:55 | -33.40531 | -70.78929 | 1569 ft | 1 kts | 225° |
| 2026-05-07 04:56 | -33.40536 | -70.78935 | 1569 ft | 0 kts | 225° |
| 2026-05-07 04:57 | -33.40527 | -70.78924 | 1569 ft | 0 kts | 223° |